sensor_id;sensor_type;location;lat;lon;timestamp;pressure;altitude;pressure_sealevel;temperature
69545;BMP180;56766;52.260;20.746;2024-03-25T00:00:15;98919.80;;;2.70
69545;BMP180;56766;52.260;20.746;2024-03-25T00:03:02;98922.20;;;2.70
69545;BMP180;56766;52.260;20.746;2024-03-25T00:05:30;98919.20;;;2.70
69545;BMP180;56766;52.260;20.746;2024-03-25T00:07:59;98915.00;;;2.70
69545;BMP180;56766;52.260;20.746;2024-03-25T00:10:25;98918.60;;;2.70
69545;BMP180;56766;52.260;20.746;2024-03-25T00:12:53;98922.00;;;2.70
69545;BMP180;56766;52.260;20.746;2024-03-25T00:15:23;98916.60;;;2.70
69545;BMP180;56766;52.260;20.746;2024-03-25T00:17:53;98912.00;;;2.70
69545;BMP180;56766;52.260;20.746;2024-03-25T00:20:19;98911.20;;;2.70
69545;BMP180;56766;52.260;20.746;2024-03-25T00:22:48;98909.40;;;2.70
69545;BMP180;56766;52.260;20.746;2024-03-25T00:25:16;98902.20;;;2.70
69545;BMP180;56766;52.260;20.746;2024-03-25T00:27:43;98904.80;;;2.70
69545;BMP180;56766;52.260;20.746;2024-03-25T00:30:12;98899.00;;;2.70
69545;BMP180;56766;52.260;20.746;2024-03-25T00:32:40;98900.00;;;2.80
69545;BMP180;56766;52.260;20.746;2024-03-25T00:35:07;98895.60;;;2.80
69545;BMP180;56766;52.260;20.746;2024-03-25T00:37:35;98896.00;;;2.80
69545;BMP180;56766;52.260;20.746;2024-03-25T00:40:02;98891.60;;;2.80
69545;BMP180;56766;52.260;20.746;2024-03-25T00:42:33;98894.00;;;2.86
69545;BMP180;56766;52.260;20.746;2024-03-25T00:44:59;98896.40;;;2.90
69545;BMP180;56766;52.260;20.746;2024-03-25T00:47:26;98894.60;;;2.90
69545;BMP180;56766;52.260;20.746;2024-03-25T00:49:53;98891.00;;;2.96
69545;BMP180;56766;52.260;20.746;2024-03-25T00:52:20;98885.20;;;3.00
69545;BMP180;56766;52.260;20.746;2024-03-25T00:54:47;98888.40;;;3.00
69545;BMP180;56766;52.260;20.746;2024-03-25T00:57:16;98888.40;;;3.00
69545;BMP180;56766;52.260;20.746;2024-03-25T00:59:44;98883.80;;;3.06
69545;BMP180;56766;52.260;20.746;2024-03-25T01:02:10;98886.40;;;3.10
69545;BMP180;56766;52.260;20.746;2024-03-25T01:04:37;98883.80;;;3.10
69545;BMP180;56766;52.260;20.746;2024-03-25T01:07:04;98881.40;;;3.10
69545;BMP180;56766;52.260;20.746;2024-03-25T01:09:31;98879.20;;;3.14
69545;BMP180;56766;52.260;20.746;2024-03-25T01:11:58;98878.20;;;3.20
69545;BMP180;56766;52.260;20.746;2024-03-25T01:14:25;98871.80;;;3.20
69545;BMP180;56766;52.260;20.746;2024-03-25T01:16:53;98871.20;;;3.20
69545;BMP180;56766;52.260;20.746;2024-03-25T01:19:20;98872.00;;;3.20
69545;BMP180;56766;52.260;20.746;2024-03-25T01:21:48;98874.00;;;3.30
69545;BMP180;56766;52.260;20.746;2024-03-25T01:24:17;98877.20;;;3.30
69545;BMP180;56766;52.260;20.746;2024-03-25T01:26:44;98872.20;;;3.30
69545;BMP180;56766;52.260;20.746;2024-03-25T01:29:10;98872.00;;;3.30
69545;BMP180;56766;52.260;20.746;2024-03-25T01:31:38;98880.20;;;3.30
69545;BMP180;56766;52.260;20.746;2024-03-25T01:34:05;98874.20;;;3.36
69545;BMP180;56766;52.260;20.746;2024-03-25T01:36:33;98878.40;;;3.36
69545;BMP180;56766;52.260;20.746;2024-03-25T01:39:01;98871.60;;;3.30
69545;BMP180;56766;52.260;20.746;2024-03-25T01:41:28;98873.60;;;3.30
69545;BMP180;56766;52.260;20.746;2024-03-25T01:43:55;98872.60;;;3.30
69545;BMP180;56766;52.260;20.746;2024-03-25T01:46:22;98872.40;;;3.30
69545;BMP180;56766;52.260;20.746;2024-03-25T01:48:50;98870.00;;;3.30
69545;BMP180;56766;52.260;20.746;2024-03-25T01:51:21;98872.80;;;3.28
69545;BMP180;56766;52.260;20.746;2024-03-25T01:53:54;98870.40;;;3.20
69545;BMP180;56766;52.260;20.746;2024-03-25T01:56:24;98865.80;;;3.20
69545;BMP180;56766;52.260;20.746;2024-03-25T01:58:52;98864.80;;;3.10
69545;BMP180;56766;52.260;20.746;2024-03-25T02:01:20;98865.00;;;3.10
69545;BMP180;56766;52.260;20.746;2024-03-25T02:03:48;98858.60;;;3.00
69545;BMP180;56766;52.260;20.746;2024-03-25T02:06:21;98860.60;;;3.00
69545;BMP180;56766;52.260;20.746;2024-03-25T02:08:49;98860.20;;;3.00
69545;BMP180;56766;52.260;20.746;2024-03-25T02:11:17;98861.40;;;3.00
69545;BMP180;56766;52.260;20.746;2024-03-25T02:13:43;98864.20;;;3.00
69545;BMP180;56766;52.260;20.746;2024-03-25T02:16:10;98862.00;;;3.00
69545;BMP180;56766;52.260;20.746;2024-03-25T02:18:37;98862.60;;;2.90
69545;BMP180;56766;52.260;20.746;2024-03-25T02:21:04;98863.40;;;2.90
69545;BMP180;56766;52.260;20.746;2024-03-25T02:23:33;98867.80;;;2.90
69545;BMP180;56766;52.260;20.746;2024-03-25T02:26:03;98869.00;;;2.90
69545;BMP180;56766;52.260;20.746;2024-03-25T02:28:29;98866.00;;;2.90
69545;BMP180;56766;52.260;20.746;2024-03-25T02:30:57;98864.80;;;2.90
69545;BMP180;56766;52.260;20.746;2024-03-25T02:33:24;98869.80;;;2.80
69545;BMP180;56766;52.260;20.746;2024-03-25T02:35:51;98860.80;;;2.80
69545;BMP180;56766;52.260;20.746;2024-03-25T02:38:19;98865.80;;;2.74
69545;BMP180;56766;52.260;20.746;2024-03-25T02:40:47;98868.20;;;2.70
69545;BMP180;56766;52.260;20.746;2024-03-25T02:43:14;98867.00;;;2.70
69545;BMP180;56766;52.260;20.746;2024-03-25T02:45:41;98870.40;;;2.70
69545;BMP180;56766;52.260;20.746;2024-03-25T02:48:08;98865.60;;;2.60
69545;BMP180;56766;52.260;20.746;2024-03-25T02:50:34;98873.20;;;2.60
69545;BMP180;56766;52.260;20.746;2024-03-25T02:53:01;98869.20;;;2.60
69545;BMP180;56766;52.260;20.746;2024-03-25T02:55:28;98878.00;;;2.62
69545;BMP180;56766;52.260;20.746;2024-03-25T02:57:57;98881.60;;;2.60
69545;BMP180;56766;52.260;20.746;2024-03-25T03:00:23;98880.80;;;2.60
69545;BMP180;56766;52.260;20.746;2024-03-25T03:02:50;98880.40;;;2.60
69545;BMP180;56766;52.260;20.746;2024-03-25T03:05:19;98879.00;;;2.60
69545;BMP180;56766;52.260;20.746;2024-03-25T03:07:45;98874.20;;;2.60
69545;BMP180;56766;52.260;20.746;2024-03-25T03:10:14;98877.40;;;2.60
69545;BMP180;56766;52.260;20.746;2024-03-25T03:12:43;98883.60;;;2.60
69545;BMP180;56766;52.260;20.746;2024-03-25T03:15:10;98876.00;;;2.54
69545;BMP180;56766;52.260;20.746;2024-03-25T03:17:37;98881.80;;;2.52
69545;BMP180;56766;52.260;20.746;2024-03-25T03:20:04;98878.40;;;2.50
69545;BMP180;56766;52.260;20.746;2024-03-25T03:22:32;98880.20;;;2.50
69545;BMP180;56766;52.260;20.746;2024-03-25T03:25:00;98881.60;;;2.50
69545;BMP180;56766;52.260;20.746;2024-03-25T03:27:26;98881.80;;;2.50
69545;BMP180;56766;52.260;20.746;2024-03-25T03:29:55;98886.00;;;2.50
69545;BMP180;56766;52.260;20.746;2024-03-25T03:32:22;98893.60;;;2.40
69545;BMP180;56766;52.260;20.746;2024-03-25T03:34:49;98895.60;;;2.40
69545;BMP180;56766;52.260;20.746;2024-03-25T03:37:15;98896.80;;;2.40
69545;BMP180;56766;52.260;20.746;2024-03-25T03:39:42;98901.00;;;2.40
69545;BMP180;56766;52.260;20.746;2024-03-25T03:42:10;98898.60;;;2.40
69545;BMP180;56766;52.260;20.746;2024-03-25T03:44:38;98900.40;;;2.34
69545;BMP180;56766;52.260;20.746;2024-03-25T03:47:05;98898.60;;;2.30
69545;BMP180;56766;52.260;20.746;2024-03-25T03:49:32;98908.00;;;2.30
69545;BMP180;56766;52.260;20.746;2024-03-25T03:51:58;98911.00;;;2.30
69545;BMP180;56766;52.260;20.746;2024-03-25T03:54:26;98913.60;;;2.30
69545;BMP180;56766;52.260;20.746;2024-03-25T03:56:52;98913.80;;;2.32
69545;BMP180;56766;52.260;20.746;2024-03-25T03:59:19;98912.00;;;2.32
69545;BMP180;56766;52.260;20.746;2024-03-25T04:01:46;98912.80;;;2.40
69545;BMP180;56766;52.260;20.746;2024-03-25T04:04:13;98914.40;;;2.40
69545;BMP180;56766;52.260;20.746;2024-03-25T04:06:40;98915.20;;;2.40
69545;BMP180;56766;52.260;20.746;2024-03-25T04:09:07;98911.20;;;2.40
69545;BMP180;56766;52.260;20.746;2024-03-25T04:11:37;98909.60;;;2.40
69545;BMP180;56766;52.260;20.746;2024-03-25T04:14:03;98907.60;;;2.40
69545;BMP180;56766;52.260;20.746;2024-03-25T04:16:30;98911.40;;;2.40
69545;BMP180;56766;52.260;20.746;2024-03-25T04:18:58;98911.40;;;2.40
69545;BMP180;56766;52.260;20.746;2024-03-25T04:21:25;98915.00;;;2.42
69545;BMP180;56766;52.260;20.746;2024-03-25T04:23:52;98915.00;;;2.50
69545;BMP180;56766;52.260;20.746;2024-03-25T04:26:19;98914.20;;;2.50
69545;BMP180;56766;52.260;20.746;2024-03-25T04:28:45;98912.40;;;2.50
69545;BMP180;56766;52.260;20.746;2024-03-25T04:31:12;98919.40;;;2.50
69545;BMP180;56766;52.260;20.746;2024-03-25T04:33:39;98919.60;;;2.50
69545;BMP180;56766;52.260;20.746;2024-03-25T04:36:06;98920.00;;;2.50
69545;BMP180;56766;52.260;20.746;2024-03-25T04:38:34;98917.00;;;2.50
69545;BMP180;56766;52.260;20.746;2024-03-25T04:41:00;98917.40;;;2.50
69545;BMP180;56766;52.260;20.746;2024-03-25T04:43:28;98918.40;;;2.60
69545;BMP180;56766;52.260;20.746;2024-03-25T04:45:55;98920.00;;;2.60
69545;BMP180;56766;52.260;20.746;2024-03-25T04:48:25;98923.80;;;2.60
69545;BMP180;56766;52.260;20.746;2024-03-25T04:50:52;98923.20;;;2.60
69545;BMP180;56766;52.260;20.746;2024-03-25T04:53:19;98933.40;;;2.66
69545;BMP180;56766;52.260;20.746;2024-03-25T04:55:46;98932.00;;;2.70
69545;BMP180;56766;52.260;20.746;2024-03-25T04:58:14;98934.00;;;2.70
69545;BMP180;56766;52.260;20.746;2024-03-25T05:00:41;98933.20;;;2.80
69545;BMP180;56766;52.260;20.746;2024-03-25T05:03:08;98933.80;;;2.80
69545;BMP180;56766;52.260;20.746;2024-03-25T05:05:36;98934.80;;;2.88
69545;BMP180;56766;52.260;20.746;2024-03-25T05:08:04;98935.40;;;2.90
69545;BMP180;56766;52.260;20.746;2024-03-25T05:10:31;98935.20;;;3.00
69545;BMP180;56766;52.260;20.746;2024-03-25T05:12:57;98939.20;;;3.00
69545;BMP180;56766;52.260;20.746;2024-03-25T05:15:24;98938.00;;;3.10
69545;BMP180;56766;52.260;20.746;2024-03-25T05:17:51;98933.60;;;3.10
69545;BMP180;56766;52.260;20.746;2024-03-25T05:20:17;98936.40;;;3.20
69545;BMP180;56766;52.260;20.746;2024-03-25T05:22:44;98936.80;;;3.20
69545;BMP180;56766;52.260;20.746;2024-03-25T05:25:11;98939.20;;;3.30
69545;BMP180;56766;52.260;20.746;2024-03-25T05:27:38;98933.40;;;3.30
69545;BMP180;56766;52.260;20.746;2024-03-25T05:30:05;98937.00;;;3.40
69545;BMP180;56766;52.260;20.746;2024-03-25T05:32:32;98938.60;;;3.40
69545;BMP180;56766;52.260;20.746;2024-03-25T05:34:59;98936.60;;;3.50
69545;BMP180;56766;52.260;20.746;2024-03-25T05:37:27;98935.60;;;3.50
69545;BMP180;56766;52.260;20.746;2024-03-25T05:39:56;98934.80;;;3.60
69545;BMP180;56766;52.260;20.746;2024-03-25T05:42:24;98935.00;;;3.60
69545;BMP180;56766;52.260;20.746;2024-03-25T05:44:53;98936.00;;;3.70
69545;BMP180;56766;52.260;20.746;2024-03-25T05:47:19;98940.20;;;3.70
69545;BMP180;56766;52.260;20.746;2024-03-25T05:49:47;98944.80;;;3.80
69545;BMP180;56766;52.260;20.746;2024-03-25T05:52:14;98949.20;;;3.80
69545;BMP180;56766;52.260;20.746;2024-03-25T05:54:40;98951.40;;;3.90
69545;BMP180;56766;52.260;20.746;2024-03-25T05:57:07;98955.40;;;4.00
69545;BMP180;56766;52.260;20.746;2024-03-25T05:59:34;98954.60;;;4.10
69545;BMP180;56766;52.260;20.746;2024-03-25T06:02:01;98958.40;;;4.20
69545;BMP180;56766;52.260;20.746;2024-03-25T06:04:28;98952.60;;;4.30
69545;BMP180;56766;52.260;20.746;2024-03-25T06:06:55;98956.60;;;4.40
69545;BMP180;56766;52.260;20.746;2024-03-25T06:09:22;98958.80;;;4.50
69545;BMP180;56766;52.260;20.746;2024-03-25T06:11:49;98961.20;;;4.66
69545;BMP180;56766;52.260;20.746;2024-03-25T06:14:16;98964.80;;;4.80
69545;BMP180;56766;52.260;20.746;2024-03-25T06:16:42;98970.00;;;4.90
69545;BMP180;56766;52.260;20.746;2024-03-25T06:19:10;98969.00;;;5.10
69545;BMP180;56766;52.260;20.746;2024-03-25T06:21:38;98972.80;;;5.20
69545;BMP180;56766;52.260;20.746;2024-03-25T06:24:06;98969.00;;;5.30
69545;BMP180;56766;52.260;20.746;2024-03-25T06:26:33;98973.80;;;5.50
69545;BMP180;56766;52.260;20.746;2024-03-25T06:29:01;98975.40;;;5.60
69545;BMP180;56766;52.260;20.746;2024-03-25T06:31:29;98973.80;;;5.70
69545;BMP180;56766;52.260;20.746;2024-03-25T06:34:15;98977.20;;;5.90
69545;BMP180;56766;52.260;20.746;2024-03-25T06:36:46;98980.00;;;6.02
69545;BMP180;56766;52.260;20.746;2024-03-25T06:39:17;98975.40;;;6.10
69545;BMP180;56766;52.260;20.746;2024-03-25T06:41:45;98980.40;;;6.30
69545;BMP180;56766;52.260;20.746;2024-03-25T06:44:12;98978.20;;;6.40
69545;BMP180;56766;52.260;20.746;2024-03-25T06:46:38;98976.20;;;6.50
69545;BMP180;56766;52.260;20.746;2024-03-25T06:49:06;98978.40;;;6.60
69545;BMP180;56766;52.260;20.746;2024-03-25T06:51:33;98982.20;;;6.80
69545;BMP180;56766;52.260;20.746;2024-03-25T06:54:01;98983.20;;;6.90
69545;BMP180;56766;52.260;20.746;2024-03-25T06:56:27;98988.20;;;7.10
69545;BMP180;56766;52.260;20.746;2024-03-25T06:58:55;98986.00;;;7.20
69545;BMP180;56766;52.260;20.746;2024-03-25T07:01:22;98986.20;;;7.30
69545;BMP180;56766;52.260;20.746;2024-03-25T07:03:49;98991.40;;;7.50
69545;BMP180;56766;52.260;20.746;2024-03-25T07:06:16;98988.80;;;7.60
69545;BMP180;56766;52.260;20.746;2024-03-25T07:08:43;98991.00;;;7.70
69545;BMP180;56766;52.260;20.746;2024-03-25T07:11:10;98987.40;;;7.90
69545;BMP180;56766;52.260;20.746;2024-03-25T07:13:36;98988.20;;;8.00
69545;BMP180;56766;52.260;20.746;2024-03-25T07:16:03;98991.80;;;8.10
69545;BMP180;56766;52.260;20.746;2024-03-25T07:18:30;98993.20;;;8.20
69545;BMP180;56766;52.260;20.746;2024-03-25T07:20:57;98998.20;;;8.36
69545;BMP180;56766;52.260;20.746;2024-03-25T07:23:24;98999.40;;;8.48
69545;BMP180;56766;52.260;20.746;2024-03-25T07:25:50;98997.60;;;8.50
69545;BMP180;56766;52.260;20.746;2024-03-25T07:28:17;98999.40;;;8.60
69545;BMP180;56766;52.260;20.746;2024-03-25T07:30:44;99000.80;;;8.64
69545;BMP180;56766;52.260;20.746;2024-03-25T07:33:11;99002.40;;;8.70
69545;BMP180;56766;52.260;20.746;2024-03-25T07:35:38;98999.60;;;8.76
69545;BMP180;56766;52.260;20.746;2024-03-25T07:38:05;98995.60;;;8.80
69545;BMP180;56766;52.260;20.746;2024-03-25T07:40:32;99005.00;;;8.90
69545;BMP180;56766;52.260;20.746;2024-03-25T07:42:59;99006.20;;;9.10
69545;BMP180;56766;52.260;20.746;2024-03-25T07:45:25;99002.20;;;9.28
69545;BMP180;56766;52.260;20.746;2024-03-25T07:47:53;99003.00;;;9.38
69545;BMP180;56766;52.260;20.746;2024-03-25T07:50:19;99001.80;;;9.40
69545;BMP180;56766;52.260;20.746;2024-03-25T07:52:47;99002.80;;;9.40
69545;BMP180;56766;52.260;20.746;2024-03-25T07:55:14;99006.60;;;9.52
69545;BMP180;56766;52.260;20.746;2024-03-25T07:57:41;99001.00;;;9.70
69545;BMP180;56766;52.260;20.746;2024-03-25T08:00:08;99004.60;;;9.70
69545;BMP180;56766;52.260;20.746;2024-03-25T08:02:36;99002.00;;;9.90
69545;BMP180;56766;52.260;20.746;2024-03-25T08:05:04;99002.20;;;10.00
69545;BMP180;56766;52.260;20.746;2024-03-25T08:07:30;99000.60;;;10.00
69545;BMP180;56766;52.260;20.746;2024-03-25T08:09:57;99008.00;;;10.10
69545;BMP180;56766;52.260;20.746;2024-03-25T08:12:24;99006.80;;;10.18
69545;BMP180;56766;52.260;20.746;2024-03-25T08:14:52;99008.40;;;10.20
69545;BMP180;56766;52.260;20.746;2024-03-25T08:17:19;99010.40;;;10.30
69545;BMP180;56766;52.260;20.746;2024-03-25T08:19:46;99016.40;;;10.56
69545;BMP180;56766;52.260;20.746;2024-03-25T08:22:13;99011.00;;;10.78
69545;BMP180;56766;52.260;20.746;2024-03-25T08:24:40;99019.00;;;10.90
69545;BMP180;56766;52.260;20.746;2024-03-25T08:27:07;99012.40;;;11.12
69545;BMP180;56766;52.260;20.746;2024-03-25T08:29:37;99013.40;;;11.20
69545;BMP180;56766;52.260;20.746;2024-03-25T08:32:05;99012.60;;;11.30
69545;BMP180;56766;52.260;20.746;2024-03-25T08:34:32;99021.00;;;11.20
69545;BMP180;56766;52.260;20.746;2024-03-25T08:36:59;99018.00;;;11.10
69545;BMP180;56766;52.260;20.746;2024-03-25T08:39:25;99019.20;;;10.88
69545;BMP180;56766;52.260;20.746;2024-03-25T08:41:53;99013.60;;;10.80
69545;BMP180;56766;52.260;20.746;2024-03-25T08:44:20;99018.80;;;11.02
69545;BMP180;56766;52.260;20.746;2024-03-25T08:47:18;99018.00;;;11.24
69545;BMP180;56766;52.260;20.746;2024-03-25T08:49:45;99016.80;;;11.60
69545;BMP180;56766;52.260;20.746;2024-03-25T08:52:14;99018.60;;;11.90
69545;BMP180;56766;52.260;20.746;2024-03-25T08:54:43;99014.80;;;12.10
69545;BMP180;56766;52.260;20.746;2024-03-25T08:57:13;99022.00;;;12.20
69545;BMP180;56766;52.260;20.746;2024-03-25T08:59:41;99021.80;;;12.30
69545;BMP180;56766;52.260;20.746;2024-03-25T09:02:09;99017.80;;;12.40
69545;BMP180;56766;52.260;20.746;2024-03-25T09:04:35;99024.60;;;12.50
69545;BMP180;56766;52.260;20.746;2024-03-25T09:07:06;99029.80;;;12.60
69545;BMP180;56766;52.260;20.746;2024-03-25T09:09:38;99027.40;;;12.70
69545;BMP180;56766;52.260;20.746;2024-03-25T09:12:29;99027.00;;;12.80
69545;BMP180;56766;52.260;20.746;2024-03-25T09:15:00;99020.80;;;12.90
69545;BMP180;56766;52.260;20.746;2024-03-25T09:17:27;99025.40;;;13.00
69545;BMP180;56766;52.260;20.746;2024-03-25T09:19:58;99026.40;;;13.10
69545;BMP180;56766;52.260;20.746;2024-03-25T09:22:25;99031.00;;;13.30
69545;BMP180;56766;52.260;20.746;2024-03-25T09:24:53;99026.60;;;13.40
69545;BMP180;56766;52.260;20.746;2024-03-25T09:27:20;99030.80;;;13.50
69545;BMP180;56766;52.260;20.746;2024-03-25T09:29:50;99031.40;;;13.50
69545;BMP180;56766;52.260;20.746;2024-03-25T09:32:17;99031.60;;;13.60
69545;BMP180;56766;52.260;20.746;2024-03-25T09:34:44;99036.40;;;13.80
69545;BMP180;56766;52.260;20.746;2024-03-25T09:37:16;99040.00;;;13.80
69545;BMP180;56766;52.260;20.746;2024-03-25T09:39:43;99032.40;;;13.90
69545;BMP180;56766;52.260;20.746;2024-03-25T09:42:18;99033.60;;;13.90
69545;BMP180;56766;52.260;20.746;2024-03-25T09:44:50;99033.40;;;13.90
69545;BMP180;56766;52.260;20.746;2024-03-25T09:47:41;99032.20;;;14.08
69545;BMP180;56766;52.260;20.746;2024-03-25T09:50:25;99032.00;;;14.50
69545;BMP180;56766;52.260;20.746;2024-03-25T09:52:53;99034.60;;;14.70
69545;BMP180;56766;52.260;20.746;2024-03-25T09:55:47;99030.80;;;14.60
69545;BMP180;56766;52.260;20.746;2024-03-25T09:58:21;99032.20;;;14.40
69545;BMP180;56766;52.260;20.746;2024-03-25T10:00:50;99030.60;;;14.30
69545;BMP180;56766;52.260;20.746;2024-03-25T10:03:17;99032.40;;;14.10
69545;BMP180;56766;52.260;20.746;2024-03-25T10:05:45;99032.20;;;14.00
69545;BMP180;56766;52.260;20.746;2024-03-25T10:08:21;99032.80;;;13.90
69545;BMP180;56766;52.260;20.746;2024-03-25T10:10:49;99031.00;;;13.92
69545;BMP180;56766;52.260;20.746;2024-03-25T10:13:18;99032.20;;;13.98
69545;BMP180;56766;52.260;20.746;2024-03-25T10:15:48;99030.20;;;13.92
69545;BMP180;56766;52.260;20.746;2024-03-25T10:18:15;99037.40;;;13.80
69545;BMP180;56766;52.260;20.746;2024-03-25T10:20:54;99039.00;;;13.80
69545;BMP180;56766;52.260;20.746;2024-03-25T10:23:24;99036.60;;;13.90
69545;BMP180;56766;52.260;20.746;2024-03-25T10:25:58;99033.60;;;13.90
69545;BMP180;56766;52.260;20.746;2024-03-25T10:28:37;99038.60;;;13.80
69545;BMP180;56766;52.260;20.746;2024-03-25T10:31:18;99042.40;;;13.78
69545;BMP180;56766;52.260;20.746;2024-03-25T10:33:45;99033.00;;;13.70
69545;BMP180;56766;52.260;20.746;2024-03-25T10:36:11;99031.40;;;13.70
69545;BMP180;56766;52.260;20.746;2024-03-25T10:38:39;99036.40;;;13.60
69545;BMP180;56766;52.260;20.746;2024-03-25T10:41:09;99032.20;;;13.60
69545;BMP180;56766;52.260;20.746;2024-03-25T10:43:38;99038.20;;;13.60
69545;BMP180;56766;52.260;20.746;2024-03-25T10:46:19;99033.20;;;13.64
69545;BMP180;56766;52.260;20.746;2024-03-25T10:49:01;99032.20;;;13.62
69545;BMP180;56766;52.260;20.746;2024-03-25T10:51:34;99035.80;;;13.62
69545;BMP180;56766;52.260;20.746;2024-03-25T10:54:08;99037.80;;;13.70
69545;BMP180;56766;52.260;20.746;2024-03-25T10:56:37;99033.60;;;13.80
69545;BMP180;56766;52.260;20.746;2024-03-25T10:59:07;99038.20;;;13.80
69545;BMP180;56766;52.260;20.746;2024-03-25T11:01:45;99031.60;;;13.90
69545;BMP180;56766;52.260;20.746;2024-03-25T11:04:13;99032.60;;;13.98
69545;BMP180;56766;52.260;20.746;2024-03-25T11:06:40;99034.00;;;14.20
69545;BMP180;56766;52.260;20.746;2024-03-25T11:09:28;99038.20;;;14.42
69545;BMP180;56766;52.260;20.746;2024-03-25T11:11:59;99034.20;;;14.90
69545;BMP180;56766;52.260;20.746;2024-03-25T11:14:30;99036.80;;;15.40
69545;BMP180;56766;52.260;20.746;2024-03-25T11:16:59;99033.00;;;15.90
69545;BMP180;56766;52.260;20.746;2024-03-25T11:19:33;99033.00;;;16.20
69545;BMP180;56766;52.260;20.746;2024-03-25T11:22:12;99030.20;;;16.20
69545;BMP180;56766;52.260;20.746;2024-03-25T11:24:47;99027.00;;;16.10
69545;BMP180;56766;52.260;20.746;2024-03-25T11:27:22;99025.00;;;16.08
69545;BMP180;56766;52.260;20.746;2024-03-25T11:29:50;99029.40;;;16.00
69545;BMP180;56766;52.260;20.746;2024-03-25T11:32:17;99033.80;;;16.02
69545;BMP180;56766;52.260;20.746;2024-03-25T11:34:53;99034.20;;;16.00
69545;BMP180;56766;52.260;20.746;2024-03-25T11:37:24;99029.60;;;16.12
69545;BMP180;56766;52.260;20.746;2024-03-25T11:40:23;99029.40;;;16.00
69545;BMP180;56766;52.260;20.746;2024-03-25T11:43:04;99026.80;;;15.90
69545;BMP180;56766;52.260;20.746;2024-03-25T11:45:32;99031.40;;;15.90
69545;BMP180;56766;52.260;20.746;2024-03-25T11:48:04;99025.00;;;15.90
69545;BMP180;56766;52.260;20.746;2024-03-25T11:50:34;99031.40;;;15.90
69545;BMP180;56766;52.260;20.746;2024-03-25T11:53:10;99027.60;;;16.00
69545;BMP180;56766;52.260;20.746;2024-03-25T11:55:46;99030.20;;;16.10
69545;BMP180;56766;52.260;20.746;2024-03-25T11:58:15;99030.80;;;16.12
69545;BMP180;56766;52.260;20.746;2024-03-25T12:00:47;99032.00;;;16.00
69545;BMP180;56766;52.260;20.746;2024-03-25T12:03:33;99020.40;;;16.00
69545;BMP180;56766;52.260;20.746;2024-03-25T12:06:01;99022.00;;;16.10
69545;BMP180;56766;52.260;20.746;2024-03-25T12:08:28;99020.40;;;16.20
69545;BMP180;56766;52.260;20.746;2024-03-25T12:11:01;99019.80;;;16.10
69545;BMP180;56766;52.260;20.746;2024-03-25T12:13:45;99027.20;;;16.00
69545;BMP180;56766;52.260;20.746;2024-03-25T12:16:12;99027.80;;;16.00
69545;BMP180;56766;52.260;20.746;2024-03-25T12:18:43;99035.60;;;15.90
69545;BMP180;56766;52.260;20.746;2024-03-25T12:21:12;99037.60;;;15.70
69545;BMP180;56766;52.260;20.746;2024-03-25T12:23:42;99040.80;;;15.58
69545;BMP180;56766;52.260;20.746;2024-03-25T12:26:18;99042.00;;;15.40
69545;BMP180;56766;52.260;20.746;2024-03-25T12:28:45;99051.00;;;15.30
69545;BMP180;56766;52.260;20.746;2024-03-25T12:31:16;99056.60;;;15.30
69545;BMP180;56766;52.260;20.746;2024-03-25T12:33:44;99060.60;;;15.30
69545;BMP180;56766;52.260;20.746;2024-03-25T12:36:19;99052.40;;;15.20
69545;BMP180;56766;52.260;20.746;2024-03-25T12:38:57;99057.00;;;15.06
69545;BMP180;56766;52.260;20.746;2024-03-25T12:41:27;99059.20;;;14.88
69545;BMP180;56766;52.260;20.746;2024-03-25T12:43:56;99057.80;;;14.60
69545;BMP180;56766;52.260;20.746;2024-03-25T12:46:23;99062.60;;;14.40
69545;BMP180;56766;52.260;20.746;2024-03-25T12:48:51;99053.20;;;14.30
69545;BMP180;56766;52.260;20.746;2024-03-25T12:51:18;99054.00;;;14.20
69545;BMP180;56766;52.260;20.746;2024-03-25T12:53:45;99053.40;;;14.10
69545;BMP180;56766;52.260;20.746;2024-03-25T12:56:15;99052.00;;;13.80
69545;BMP180;56766;52.260;20.746;2024-03-25T12:58:45;99054.00;;;13.70
69545;BMP180;56766;52.260;20.746;2024-03-25T13:01:15;99057.60;;;13.70
69545;BMP180;56766;52.260;20.746;2024-03-25T13:03:42;99059.60;;;13.60
69545;BMP180;56766;52.260;20.746;2024-03-25T13:06:11;99056.60;;;13.64
69545;BMP180;56766;52.260;20.746;2024-03-25T13:08:41;99058.40;;;13.80
69545;BMP180;56766;52.260;20.746;2024-03-25T13:11:16;99065.20;;;13.82
69545;BMP180;56766;52.260;20.746;2024-03-25T13:13:44;99067.60;;;13.80
69545;BMP180;56766;52.260;20.746;2024-03-25T13:16:13;99074.00;;;13.70
69545;BMP180;56766;52.260;20.746;2024-03-25T13:18:40;99072.20;;;13.50
69545;BMP180;56766;52.260;20.746;2024-03-25T13:21:14;99081.00;;;13.40
69545;BMP180;56766;52.260;20.746;2024-03-25T13:23:41;99085.80;;;13.40
69545;BMP180;56766;52.260;20.746;2024-03-25T13:26:08;99076.20;;;13.40
69545;BMP180;56766;52.260;20.746;2024-03-25T13:28:36;99079.60;;;13.28
69545;BMP180;56766;52.260;20.746;2024-03-25T13:31:07;99085.40;;;13.10
69545;BMP180;56766;52.260;20.746;2024-03-25T13:33:46;99086.20;;;13.12
69545;BMP180;56766;52.260;20.746;2024-03-25T13:36:14;99086.60;;;13.22
69545;BMP180;56766;52.260;20.746;2024-03-25T13:38:42;99081.40;;;13.34
69545;BMP180;56766;52.260;20.746;2024-03-25T13:41:11;99085.20;;;13.34
69545;BMP180;56766;52.260;20.746;2024-03-25T13:43:44;99079.20;;;13.30
69545;BMP180;56766;52.260;20.746;2024-03-25T13:46:12;99082.80;;;13.28
69545;BMP180;56766;52.260;20.746;2024-03-25T13:48:40;99087.20;;;13.20
69545;BMP180;56766;52.260;20.746;2024-03-25T13:51:09;99079.60;;;13.10
69545;BMP180;56766;52.260;20.746;2024-03-25T13:53:36;99085.80;;;13.00
69545;BMP180;56766;52.260;20.746;2024-03-25T13:56:05;99083.20;;;13.00
69545;BMP180;56766;52.260;20.746;2024-03-25T13:58:48;99086.60;;;13.10
69545;BMP180;56766;52.260;20.746;2024-03-25T14:01:16;99089.80;;;13.20
69545;BMP180;56766;52.260;20.746;2024-03-25T14:03:48;99094.80;;;13.30
69545;BMP180;56766;52.260;20.746;2024-03-25T14:06:15;99106.20;;;13.40
69545;BMP180;56766;52.260;20.746;2024-03-25T14:08:44;99103.40;;;13.36
69545;BMP180;56766;52.260;20.746;2024-03-25T14:11:15;99098.20;;;13.20
69545;BMP180;56766;52.260;20.746;2024-03-25T14:13:42;99108.00;;;13.12